5 Max
3 km/h
2 Mini

LFMY 160400Z AUTO 07004KT 040V100 9999 BKN025 BKN031 OVC046 05/04 Q1018

TAF LFMY 141450Z 1414/1509 CNL